createdAt,value
2018-04-01T00:01:53.392Z,32.10
2018-04-01T00:04:54.429Z,30.70
2018-04-01T00:07:55.447Z,31.33
2018-04-01T00:10:56.446Z,34.03
2018-04-01T00:13:57.460Z,30.53
2018-04-01T00:16:58.515Z,30.93
2018-04-01T00:20:00.280Z,33.63
2018-04-01T00:23:02.046Z,34.43
2018-04-01T00:26:03.038Z,38.50
2018-04-01T00:29:04.059Z,32.00
2018-04-01T00:32:05.066Z,38.47
2018-04-01T00:35:06.088Z,42.37
2018-04-01T00:38:07.821Z,40.43
2018-04-01T00:41:08.804Z,42.93
2018-04-01T00:44:10.559Z,39.13
2018-04-01T00:47:11.575Z,41.83
2018-04-01T00:50:12.612Z,38.93
2018-04-01T00:53:14.465Z,39.57
2018-04-01T00:56:16.227Z,38.80
2018-04-01T00:59:17.231Z,40.57
2018-04-01T01:02:18.411Z,36.40
2018-04-01T01:05:19.446Z,39.97
2018-04-01T01:08:20.478Z,39.70
2018-04-01T01:11:21.468Z,43.13
2018-04-01T01:14:22.786Z,38.63
2018-04-01T01:17:23.822Z,36.87
2018-04-01T01:20:24.863Z,43.73
2018-04-01T01:23:25.875Z,44.00
2018-04-01T01:26:26.913Z,35.40
2018-04-01T01:29:27.918Z,44.77
2018-04-01T01:32:28.964Z,32.47
2018-04-01T01:35:30.720Z,33.10
2018-04-01T01:38:31.705Z,37.27
2018-04-01T01:41:32.750Z,43.60
2018-04-01T01:44:34.527Z,38.27
2018-04-01T01:47:36.267Z,36.00
2018-04-01T01:50:37.302Z,36.43
2018-04-01T01:53:38.327Z,39.13
2018-04-01T01:56:40.107Z,37.40
2018-04-01T01:59:41.157Z,39.03
2018-04-01T02:02:42.927Z,41.13
2018-04-01T02:05:44.699Z,36.17
2018-04-01T02:08:46.466Z,40.97
2018-04-01T02:11:48.220Z,32.97
2018-04-01T02:14:49.216Z,31.77
2018-04-01T02:17:50.963Z,32.07
2018-04-01T02:20:51.984Z,34.50
2018-04-01T02:23:53.030Z,34.73
2018-04-01T02:26:54.120Z,37.73
2018-04-01T02:29:55.147Z,33.13
2018-04-01T02:32:56.120Z,33.80
2018-04-01T02:35:57.104Z,33.03
2018-04-01T02:38:58.107Z,32.93
2018-04-01T02:41:59.096Z,40.83
2018-04-01T02:45:00.106Z,33.80
2018-04-01T02:48:01.873Z,29.83
2018-04-01T02:51:03.643Z,33.00
2018-04-01T02:54:05.407Z,39.63
2018-04-01T02:57:06.426Z,36.70
2018-04-01T03:00:07.420Z,39.17
2018-04-01T03:03:08.418Z,32.57
2018-04-01T03:06:09.448Z,29.17
2018-04-01T03:09:11.197Z,32.17
2018-04-01T03:12:12.233Z,31.30
2018-04-01T03:15:13.291Z,30.30
2018-04-01T03:18:14.306Z,37.20
2018-04-01T03:21:16.033Z,29.80
2018-04-01T03:24:17.057Z,28.70
2018-04-01T03:27:18.071Z,35.47
2018-04-01T03:30:19.825Z,36.83
2018-04-01T03:33:20.807Z,33.20
2018-04-01T03:36:21.824Z,31.57
2018-04-01T03:39:22.844Z,28.77
2018-04-01T03:42:24.581Z,27.67
2018-04-01T03:45:25.599Z,32.67
2018-04-01T03:48:26.573Z,24.93
2018-04-01T03:51:27.892Z,30.43
2018-04-01T03:54:28.911Z,25.77
2018-04-01T03:57:29.923Z,26.50
2018-04-01T04:00:30.943Z,27.97
2018-04-01T04:03:31.962Z,32.03
2018-04-01T04:06:33.023Z,31.97
2018-04-01T04:09:34.822Z,33.40
2018-04-01T04:12:35.826Z,31.37
2018-04-01T04:15:36.835Z,34.67
2018-04-01T04:18:37.816Z,28.53
2018-04-01T04:21:39.010Z,31.03
2018-04-01T04:24:40.036Z,31.70
2018-04-01T04:27:41.798Z,31.63
2018-04-01T04:30:42.803Z,32.90
2018-04-01T04:33:43.817Z,32.57
2018-04-01T04:36:44.852Z,34.50
2018-04-01T04:39:45.910Z,33.13
2018-04-01T04:42:46.933Z,36.53
2018-04-01T04:45:47.982Z,33.73
2018-04-01T04:48:48.976Z,36.77
2018-04-01T04:51:50.240Z,34.73
2018-04-01T04:54:51.336Z,34.40
2018-04-01T04:57:52.305Z,37.13
2018-04-01T05:00:54.061Z,32.20
2018-04-01T05:07:24.148Z,25.97
2018-04-01T05:10:25.896Z,22.60
2018-04-01T05:13:26.944Z,23.37
2018-04-01T05:16:27.966Z,17.00
2018-04-01T05:19:29.017Z,16.53
2018-04-01T05:22:30.091Z,10.60
2018-04-01T05:25:31.103Z,11.90
2018-04-01T05:28:32.113Z,13.20
2018-04-01T05:31:33.210Z,11.93
2018-04-01T05:34:34.242Z,9.50
2018-04-01T05:37:35.253Z,9.60
2018-04-01T05:40:36.975Z,10.47
2018-04-01T05:43:38.739Z,10.13
2018-04-01T05:46:39.789Z,10.50
2018-04-01T05:49:40.837Z,10.03
2018-04-01T05:52:41.831Z,9.70
2018-04-01T05:55:42.843Z,7.90
2018-04-01T05:58:43.843Z,7.73
2018-04-01T06:01:44.853Z,7.53
2018-04-01T06:04:46.610Z,16.17
2018-04-01T06:07:48.369Z,7.20
2018-04-01T06:10:49.376Z,9.40
2018-04-01T06:13:50.379Z,4.80
2018-04-01T06:16:51.360Z,8.67
2018-04-01T06:19:53.106Z,3.63
2018-04-01T06:22:54.235Z,4.30
2018-04-01T06:25:55.254Z,6.07
2018-04-01T06:28:56.983Z,4.20
2018-04-01T06:31:57.972Z,5.30
2018-04-01T06:34:58.971Z,3.10
2018-04-01T06:37:59.962Z,4.63
2018-04-01T06:41:00.991Z,4.33
2018-04-01T06:44:02.039Z,3.53
2018-04-01T06:47:03.035Z,4.30
2018-04-01T06:50:04.055Z,3.90
2018-04-01T06:53:05.035Z,3.73
2018-04-01T06:56:06.053Z,5.03
2018-04-01T06:59:07.034Z,5.17
2018-04-01T07:02:08.022Z,7.80
2018-04-01T07:05:09.063Z,7.53
2018-04-01T07:08:10.080Z,8.10
2018-04-01T07:11:11.804Z,6.80
2018-04-01T07:14:12.818Z,9.37
2018-04-01T07:17:14.550Z,9.90
2018-04-01T07:20:15.550Z,9.43
2018-04-01T07:23:16.528Z,8.17
2018-04-01T07:26:17.561Z,8.33
2018-04-01T07:29:18.555Z,7.00
2018-04-01T07:32:19.546Z,7.17
2018-04-01T07:35:20.523Z,7.00
2018-04-01T07:38:22.259Z,8.00
2018-04-01T07:41:23.251Z,13.20
2018-04-01T07:44:24.994Z,10.20
2018-04-01T07:47:26.002Z,9.50
2018-04-01T07:50:27.038Z,11.07
2018-04-01T07:53:28.802Z,7.80
2018-04-01T07:56:29.787Z,7.93
2018-04-01T07:59:30.808Z,11.07
2018-04-01T08:02:31.805Z,7.40
2018-04-01T08:05:32.791Z,6.80
2018-04-01T08:08:33.810Z,8.07
2018-04-01T08:11:35.569Z,7.40
2018-04-01T08:14:36.581Z,6.37
2018-04-01T08:17:37.559Z,14.80
2018-04-01T08:20:38.558Z,121.33
2018-04-01T08:23:39.574Z,21.07
2018-04-01T08:26:40.647Z,7.90
2018-04-01T08:29:41.761Z,8.10
2018-04-01T08:32:42.802Z,10.60
2018-04-01T08:35:43.922Z,12.77
2018-04-01T08:38:44.946Z,9.53
2018-04-01T08:41:45.982Z,12.43
2018-04-01T08:44:47.014Z,8.90
2018-04-01T08:47:48.756Z,8.67
2018-04-01T08:50:49.744Z,9.50
2018-04-01T08:53:51.525Z,16.17
2018-04-01T08:56:53.311Z,9.97
2018-04-01T08:59:55.065Z,9.40
2018-04-01T09:02:56.775Z,11.77
2018-04-01T09:05:57.821Z,11.07
2018-04-01T09:08:58.853Z,11.40
2018-04-01T09:12:00.621Z,13.60
2018-04-01T09:15:01.650Z,21.07
2018-04-01T09:18:02.669Z,40.20
2018-04-01T09:21:03.690Z,50.07
2018-04-01T09:24:04.794Z,64.63
2018-04-01T09:27:05.818Z,59.53
2018-04-01T09:30:06.815Z,55.97
2018-04-01T09:33:07.812Z,62.97
2018-04-01T09:36:09.558Z,58.00
2018-04-01T09:39:10.556Z,58.83
2018-04-01T09:42:11.536Z,69.77
2018-04-01T09:45:13.268Z,62.20
2018-04-01T09:48:14.273Z,68.40
2018-04-01T09:51:16.038Z,62.33
2018-04-01T09:54:17.832Z,62.60
2018-04-01T09:57:18.827Z,68.90
2018-04-01T10:00:24.520Z,64.70
2018-04-01T10:03:25.789Z,71.67
2018-04-01T10:06:27.062Z,70.70
2018-04-01T10:09:29.098Z,72.37
2018-04-01T10:12:30.416Z,70.43
2018-04-01T10:15:32.399Z,78.90
2018-04-01T10:18:34.398Z,77.53
2018-04-01T10:21:35.680Z,71.30
2018-04-01T10:24:37.688Z,76.53
2018-04-01T10:27:39.020Z,79.13
2018-04-01T10:30:40.302Z,78.70
2018-04-01T10:33:41.559Z,82.07
2018-04-01T10:36:42.977Z,85.93
2018-04-01T10:39:44.976Z,75.87
2018-04-01T10:42:46.209Z,80.43
2018-04-01T10:45:48.232Z,76.40
2018-04-01T10:48:49.466Z,80.53
2018-04-01T10:51:51.475Z,78.07
2018-04-01T10:54:52.482Z,75.43
2018-04-01T10:57:53.574Z,75.37
2018-04-01T11:00:54.582Z,76.83
2018-04-01T11:03:55.586Z,82.27
2018-04-01T11:06:56.582Z,78.80
2018-04-01T11:09:57.575Z,70.97
2018-04-01T11:12:59.319Z,84.30
2018-04-01T11:16:00.341Z,79.17
2018-04-01T11:19:01.362Z,81.00
2018-04-01T11:22:03.125Z,83.47
2018-04-01T11:25:04.131Z,79.13
2018-04-01T11:28:05.141Z,80.40
2018-04-01T11:31:06.132Z,90.40
2018-04-01T11:34:07.916Z,80.97
2018-04-01T11:37:08.937Z,79.60
2018-04-01T11:40:09.958Z,84.33
2018-04-01T11:43:10.973Z,87.30
2018-04-01T11:46:12.733Z,83.17
2018-04-01T11:49:13.716Z,96.53
2018-04-01T11:52:14.734Z,97.33
2018-04-01T11:55:15.743Z,99.90
2018-04-01T11:58:16.712Z,105.17
2018-04-01T12:01:17.750Z,101.10
2018-04-01T12:04:18.776Z,101.73
2018-04-01T12:07:19.756Z,93.43
2018-04-01T12:10:21.507Z,102.30
2018-04-01T12:13:22.529Z,96.13
2018-04-01T12:16:23.547Z,89.67
2018-04-01T12:19:24.556Z,82.00
2018-04-01T12:22:25.585Z,88.97
2018-04-01T12:25:26.610Z,79.10
2018-04-01T12:28:28.365Z,84.90
2018-04-01T12:31:29.360Z,79.17
2018-04-01T12:34:30.352Z,80.37
2018-04-01T12:37:31.373Z,78.10
2018-04-01T12:40:32.405Z,77.13
2018-04-01T12:43:34.329Z,83.77
2018-04-01T12:46:35.361Z,74.77
2018-04-01T12:49:36.386Z,77.30
2018-04-01T12:52:37.382Z,77.97
2018-04-01T12:55:38.395Z,72.93
2018-04-01T12:58:39.414Z,73.17
2018-04-01T13:01:40.451Z,64.97
2018-04-01T13:04:41.455Z,72.67
2018-04-01T13:07:42.458Z,61.70
2018-04-01T13:10:44.192Z,62.67
2018-04-01T13:13:45.190Z,61.50
2018-04-01T13:16:46.954Z,62.10
2018-04-01T13:19:48.691Z,59.10
2018-04-01T13:22:49.701Z,51.43
2018-04-01T13:25:50.774Z,51.23
2018-04-01T13:28:51.772Z,51.67
2018-04-01T13:31:52.923Z,57.80
2018-04-01T13:34:53.957Z,61.13
2018-04-01T13:37:55.251Z,58.77
2018-04-01T13:40:57.301Z,69.30
2018-04-01T13:43:58.303Z,60.13
2018-04-01T13:46:59.606Z,63.17
2018-04-01T13:50:00.663Z,67.40
2018-04-01T13:53:02.006Z,75.20
2018-04-01T13:56:04.386Z,69.83
2018-04-01T13:59:05.417Z,69.30
2018-04-01T14:02:07.599Z,200.00
2018-04-01T14:05:08.744Z,69.67
2018-04-01T14:08:09.787Z,74.20
2018-04-01T14:11:11.159Z,68.57
2018-04-01T14:14:12.558Z,63.33
2018-04-01T14:17:14.379Z,68.93
2018-04-01T14:20:16.616Z,76.43
2018-04-01T14:23:18.611Z,70.40
2018-04-01T14:26:20.561Z,65.70
2018-04-01T14:29:21.777Z,82.43
2018-04-01T14:32:23.551Z,64.43
2018-04-01T14:35:26.004Z,62.67
2018-04-01T14:38:27.258Z,69.13
2018-04-01T14:41:28.286Z,65.30
2018-04-01T14:44:29.697Z,58.63
2018-04-01T14:47:30.681Z,55.63
2018-04-01T14:50:31.966Z,50.63
2018-04-01T14:53:33.129Z,49.97
2018-04-01T14:56:34.427Z,56.07
2018-04-01T14:59:35.789Z,45.93
2018-04-01T15:02:37.118Z,59.13
2018-04-01T15:05:38.154Z,54.10
2018-04-01T15:08:39.575Z,52.53
2018-04-01T15:11:40.622Z,52.70
2018-04-01T15:14:42.140Z,57.23
2018-04-01T15:17:43.554Z,52.83
2018-04-01T15:20:44.944Z,53.37
2018-04-01T15:23:45.986Z,54.40
2018-04-01T15:26:47.156Z,56.67
2018-04-01T15:29:48.511Z,47.97
2018-04-01T15:32:49.902Z,50.50
2018-04-01T15:35:51.280Z,53.17
2018-04-01T15:38:53.455Z,56.90
2018-04-01T15:41:54.485Z,57.80
2018-04-01T15:44:55.846Z,61.70
2018-04-01T15:47:57.624Z,69.50
2018-04-01T15:50:58.631Z,65.93
2018-04-01T15:54:00.024Z,60.70
2018-04-01T15:57:01.087Z,74.57
2018-04-01T16:00:02.069Z,59.83
2018-04-01T16:03:03.192Z,63.97
2018-04-01T16:06:04.220Z,60.73
2018-04-01T16:09:05.232Z,66.37
2018-04-01T16:12:06.576Z,60.47
2018-04-01T16:15:07.691Z,63.93
2018-04-01T16:18:08.663Z,66.57
2018-04-01T16:21:09.996Z,61.73
2018-04-01T16:24:11.363Z,60.00
2018-04-01T16:27:13.632Z,60.40
2018-04-01T16:30:15.117Z,56.63
2018-04-01T16:33:16.489Z,62.67
2018-04-01T16:36:17.671Z,62.93
2018-04-01T16:39:18.932Z,57.80
2018-04-01T16:42:20.283Z,60.03
2018-04-01T16:45:21.671Z,56.83
2018-04-01T16:48:23.045Z,45.97
2018-04-01T16:51:24.859Z,53.63
2018-04-01T16:54:26.270Z,50.20
2018-04-01T16:57:28.155Z,57.13
2018-04-01T17:00:29.930Z,52.07
2018-04-01T17:03:31.240Z,47.00
2018-04-01T17:06:32.277Z,48.87
2018-04-01T17:09:34.046Z,41.53
2018-04-01T17:12:35.018Z,42.63
2018-04-01T17:15:36.820Z,43.70
2018-04-01T17:18:37.930Z,45.83
2018-04-01T17:21:39.010Z,49.50
2018-04-01T17:24:39.998Z,47.00
2018-04-01T17:27:41.167Z,45.30
2018-04-01T17:30:42.234Z,51.13
2018-04-01T17:33:43.497Z,38.17
2018-04-01T17:36:44.533Z,43.07
2018-04-01T17:39:45.541Z,37.07
2018-04-01T17:42:46.595Z,38.60
2018-04-01T17:45:51.170Z,37.63
2018-04-01T17:48:53.546Z,37.17
2018-04-01T17:51:54.934Z,37.10
2018-04-01T17:54:56.136Z,36.83
2018-04-01T17:57:57.483Z,38.50
2018-04-01T18:00:58.905Z,36.40
2018-04-01T18:04:00.154Z,39.67
2018-04-01T18:07:01.475Z,39.67
2018-04-01T18:10:04.339Z,41.53
2018-04-01T18:13:06.245Z,40.23
2018-04-01T18:16:08.391Z,35.30
2018-04-01T18:19:10.319Z,40.20
2018-04-01T18:22:11.408Z,38.20
2018-04-01T18:25:12.625Z,40.40
2018-04-01T18:28:14.000Z,42.67
2018-04-01T18:31:15.317Z,38.10
2018-04-01T18:34:16.406Z,37.87
2018-04-01T18:37:18.371Z,37.37
2018-04-01T18:40:19.774Z,42.20
2018-04-01T18:43:21.046Z,58.00
2018-04-01T18:46:22.314Z,58.93
2018-04-01T18:49:23.559Z,71.63
2018-04-01T18:52:24.608Z,59.80
2018-04-01T18:55:25.764Z,45.73
2018-04-01T18:58:26.896Z,39.67
2018-04-01T19:01:28.006Z,38.27
2018-04-01T19:04:29.868Z,36.40
2018-04-01T19:07:31.797Z,34.73
2018-04-01T19:10:33.805Z,32.83
2018-04-01T19:13:36.181Z,42.33
2018-04-01T19:16:56.069Z,44.77
2018-04-01T19:19:57.302Z,39.97
2018-04-01T19:22:59.276Z,43.03
2018-04-01T19:26:00.515Z,46.43
2018-04-01T19:29:02.386Z,39.30
2018-04-01T19:32:03.692Z,44.03
2018-04-01T19:35:04.966Z,44.27
2018-04-01T19:38:06.638Z,40.87
2018-04-01T19:41:07.974Z,40.17
2018-04-01T19:44:10.643Z,45.23
2018-04-01T19:47:12.461Z,46.53
2018-04-01T19:50:14.726Z,43.70
2018-04-01T19:53:16.138Z,44.67
2018-04-01T19:56:17.646Z,46.50
2018-04-01T19:59:19.069Z,41.03
2018-04-01T20:02:20.475Z,52.57
2018-04-01T20:05:22.334Z,55.53
2018-04-01T20:08:23.860Z,62.60
2018-04-01T20:11:26.218Z,67.70
2018-04-01T20:14:27.959Z,79.20
2018-04-01T20:17:31.273Z,66.60
2018-04-01T20:20:32.546Z,76.27
2018-04-01T20:23:34.136Z,87.03
2018-04-01T20:26:35.571Z,73.60
2018-04-01T20:29:37.556Z,84.13
2018-04-01T20:32:39.734Z,88.83
2018-04-01T20:35:41.779Z,79.97
2018-04-01T20:38:44.175Z,86.47
2018-04-01T20:41:45.850Z,110.97
2018-04-01T20:44:47.141Z,83.90
2018-04-01T20:47:49.124Z,84.73
2018-04-01T20:50:50.455Z,102.27
2018-04-01T20:53:51.680Z,76.47
2018-04-01T20:56:53.789Z,73.10
2018-04-01T20:59:55.783Z,70.90
2018-04-01T21:02:57.819Z,70.73
2018-04-01T21:05:59.056Z,69.63
2018-04-01T21:09:01.130Z,69.27
2018-04-01T21:12:02.427Z,73.10
2018-04-01T21:15:04.538Z,68.27
2018-04-01T21:18:06.560Z,70.67
2018-04-01T21:21:07.831Z,60.87
2018-04-01T21:24:09.139Z,53.47
2018-04-01T21:27:10.404Z,58.47
2018-04-01T21:30:11.679Z,61.30
2018-04-01T21:33:13.012Z,63.77
2018-04-01T21:36:14.283Z,56.00
2018-04-01T21:39:15.944Z,56.40
2018-04-01T21:42:17.705Z,54.77
2018-04-01T21:45:18.983Z,53.83
2018-04-01T21:48:20.227Z,53.93
2018-04-01T21:51:21.492Z,56.27
2018-04-01T21:54:23.320Z,52.50
2018-04-01T21:57:24.654Z,54.30
2018-04-01T22:00:25.916Z,57.80
2018-04-01T22:03:27.156Z,59.03
2018-04-01T22:06:28.459Z,56.37
2018-04-01T22:09:29.827Z,52.70
2018-04-01T22:12:31.069Z,59.13
2018-04-01T22:15:32.433Z,58.23
2018-04-01T22:18:33.676Z,56.67
2018-04-01T22:21:34.904Z,58.63
2018-04-01T22:24:36.142Z,58.43
2018-04-01T22:27:37.374Z,63.70
2018-04-01T22:30:39.336Z,68.40
2018-04-01T22:33:40.585Z,63.37
2018-04-01T22:36:41.862Z,72.40
2018-04-01T22:39:43.080Z,68.57
2018-04-01T22:42:44.333Z,73.60
2018-04-01T22:45:45.572Z,68.70
2018-04-01T22:48:47.555Z,73.27
2018-04-01T22:51:49.535Z,79.00
2018-04-01T22:54:50.784Z,77.27
2018-04-01T22:57:52.004Z,71.37
2018-04-01T23:00:54.078Z,73.60
2018-04-01T23:03:55.256Z,82.17
2018-04-01T23:06:56.471Z,80.90
2018-04-01T23:09:58.470Z,91.50
2018-04-01T23:12:59.720Z,91.83
2018-04-01T23:16:00.997Z,95.47
2018-04-01T23:19:02.315Z,89.77
2018-04-01T23:22:03.567Z,84.33
2018-04-01T23:25:04.792Z,104.90
2018-04-01T23:28:06.019Z,101.03
2018-04-01T23:31:07.267Z,98.03
2018-04-01T23:34:09.224Z,97.77
2018-04-01T23:37:10.478Z,121.67
2018-04-01T23:40:12.478Z,133.87
2018-04-01T23:43:14.485Z,127.23
2018-04-01T23:46:15.702Z,125.60
2018-04-01T23:49:16.919Z,124.17
2018-04-01T23:52:18.155Z,118.50
2018-04-01T23:55:19.399Z,124.90
2018-04-01T23:58:20.695Z,133.70
